createdAt,value
2022-12-01T00:02:30.193Z,33.87
2022-12-01T00:05:32.526Z,33.17
2022-12-01T00:08:35.444Z,32.33
2022-12-01T00:11:38.762Z,31.15
2022-12-01T00:14:40.886Z,33.10
2022-12-01T00:17:45.819Z,37.00
2022-12-01T00:20:51.041Z,30.67
2022-12-01T00:23:55.587Z,29.60
2022-12-01T00:26:57.785Z,31.27
2022-12-01T00:29:59.930Z,33.40
2022-12-01T00:33:02.131Z,36.10
2022-12-01T00:36:06.600Z,36.35
2022-12-01T00:39:09.674Z,37.85
2022-12-01T00:42:13.576Z,40.25
2022-12-01T00:45:15.948Z,35.33
2022-12-01T00:48:18.435Z,36.60
2022-12-01T00:51:20.606Z,36.30
2022-12-01T00:54:23.678Z,35.97
2022-12-01T00:57:26.079Z,37.95
2022-12-01T01:00:28.245Z,36.83
2022-12-01T01:03:31.030Z,40.53
2022-12-01T01:06:33.274Z,42.20
2022-12-01T01:09:35.417Z,44.45
2022-12-01T01:12:38.369Z,36.75
2022-12-01T01:15:41.246Z,42.65
2022-12-01T01:18:44.510Z,40.20
2022-12-01T01:21:46.647Z,36.55
2022-12-01T01:24:48.822Z,38.28
2022-12-01T01:27:51.435Z,34.40
2022-12-01T01:30:55.030Z,36.75
2022-12-01T01:33:58.257Z,41.07
2022-12-01T01:37:00.410Z,44.20
2022-12-01T01:40:02.770Z,41.22
2022-12-01T01:43:18.674Z,41.28
2022-12-01T01:46:29.218Z,39.10
2022-12-01T01:49:31.434Z,38.90
2022-12-01T01:52:37.402Z,44.13
2022-12-01T01:55:39.645Z,45.80
2022-12-01T01:58:42.374Z,46.50
2022-12-01T02:01:45.817Z,48.58
2022-12-01T02:04:52.526Z,49.00
2022-12-01T02:07:57.263Z,46.58
2022-12-01T02:11:19.746Z,48.63
2022-12-01T02:14:25.124Z,50.28
2022-12-01T02:17:44.943Z,52.58
2022-12-01T02:20:59.172Z,50.80
2022-12-01T02:24:26.104Z,50.13
2022-12-01T02:27:57.658Z,50.97
2022-12-01T02:31:17.041Z,50.88
2022-12-01T02:34:35.699Z,49.92
2022-12-01T02:37:57.194Z,46.70
2022-12-01T02:41:10.531Z,49.28
2022-12-01T02:44:21.094Z,49.63
2022-12-01T02:47:23.803Z,50.53
2022-12-01T02:50:28.543Z,46.28
2022-12-01T02:53:30.726Z,44.80
2022-12-01T02:56:32.843Z,47.38
2022-12-01T02:59:34.941Z,47.70
2022-12-01T03:02:51.781Z,51.20
2022-12-01T03:06:17.544Z,49.42
2022-12-01T03:09:33.610Z,48.07
2022-12-01T03:12:42.368Z,46.28
2022-12-01T03:16:08.989Z,48.90
2022-12-01T03:19:24.382Z,49.05
2022-12-01T03:22:35.526Z,44.53
2022-12-01T03:25:40.860Z,46.00
2022-12-01T03:28:55.422Z,48.50
2022-12-01T03:32:05.830Z,48.83
2022-12-01T03:35:17.893Z,47.60
2022-12-01T03:38:27.801Z,50.10
2022-12-01T03:41:35.391Z,48.50
2022-12-01T03:44:44.340Z,44.92
2022-12-01T03:47:46.766Z,49.50
2022-12-01T03:51:07.547Z,48.17
2022-12-01T03:54:54.890Z,45.10
2022-12-01T03:58:01.643Z,43.53
2022-12-01T04:01:04.774Z,43.35
2022-12-01T04:04:12.524Z,47.40
2022-12-01T04:07:14.909Z,40.30
2022-12-01T04:10:17.305Z,40.42
2022-12-01T04:13:23.266Z,41.63
2022-12-01T04:16:25.513Z,43.80
2022-12-01T04:19:27.765Z,40.97
2022-12-01T04:22:29.899Z,39.05
2022-12-01T04:25:32.003Z,41.15
2022-12-01T04:28:34.365Z,38.23
2022-12-01T04:31:37.014Z,43.00
2022-12-01T04:34:39.654Z,45.13
2022-12-01T04:37:41.781Z,42.30
2022-12-01T04:40:43.865Z,42.42
2022-12-01T04:43:46.029Z,40.40
2022-12-01T04:46:48.216Z,42.58
2022-12-01T04:49:50.637Z,47.67
2022-12-01T04:52:54.160Z,46.28
2022-12-01T04:55:56.344Z,47.00
2022-12-01T04:58:59.567Z,43.30
2022-12-01T05:02:02.836Z,39.97
2022-12-01T05:05:06.888Z,44.20
2022-12-01T05:08:09.089Z,37.08
2022-12-01T05:11:12.444Z,35.42
2022-12-01T05:14:14.735Z,38.13
2022-12-01T05:17:16.841Z,41.17
2022-12-01T05:20:40.357Z,38.78
2022-12-01T05:23:42.548Z,36.38
2022-12-01T05:26:45.168Z,36.70
2022-12-01T05:29:47.709Z,37.93
2022-12-01T05:32:50.245Z,38.92
2022-12-01T05:35:53.082Z,33.80
2022-12-01T05:38:55.467Z,39.65
2022-12-01T05:41:57.711Z,36.15
2022-12-01T05:45:00.106Z,37.30
2022-12-01T05:48:02.879Z,31.10
2022-12-01T05:51:12.538Z,39.38
2022-12-01T05:54:16.827Z,35.20
2022-12-01T05:57:19.183Z,36.45
2022-12-01T06:00:21.466Z,36.47
2022-12-01T06:03:23.582Z,35.75
2022-12-01T06:06:25.780Z,33.35
2022-12-01T06:09:27.884Z,42.00
2022-12-01T06:12:30.116Z,45.60
2022-12-01T06:15:32.248Z,35.67
2022-12-01T06:18:36.652Z,45.80
2022-12-01T06:21:39.107Z,42.08
2022-12-01T06:24:41.812Z,46.85
2022-12-01T06:27:44.220Z,54.75
2022-12-01T06:30:46.487Z,49.33
2022-12-01T06:33:48.667Z,47.80
2022-12-01T06:36:50.810Z,47.13
2022-12-01T06:39:53.296Z,48.72
2022-12-01T06:42:55.565Z,46.45
2022-12-01T06:46:01.696Z,50.17
2022-12-01T06:49:04.701Z,50.50
2022-12-01T06:52:06.879Z,51.90
2022-12-01T06:55:09.286Z,52.15
2022-12-01T06:58:11.985Z,49.47
2022-12-01T07:01:14.536Z,50.00
2022-12-01T07:04:16.858Z,53.00
2022-12-01T07:07:19.033Z,47.22
2022-12-01T07:10:21.117Z,50.65
2022-12-01T07:13:23.274Z,51.10
2022-12-01T07:16:25.540Z,58.00
2022-12-01T07:19:27.765Z,54.95
2022-12-01T07:22:32.823Z,53.83
2022-12-01T07:25:35.275Z,57.20
2022-12-01T07:28:37.958Z,54.20
2022-12-01T07:31:40.953Z,55.00
2022-12-01T07:34:43.838Z,56.22
2022-12-01T07:37:46.207Z,59.22
2022-12-01T07:40:48.434Z,61.80
2022-12-01T07:43:50.801Z,64.30
2022-12-01T07:46:52.945Z,61.27
2022-12-01T07:49:55.557Z,60.85
2022-12-01T07:52:57.835Z,56.20
2022-12-01T07:56:03.130Z,58.22
2022-12-01T07:59:09.516Z,53.47
2022-12-01T08:02:11.786Z,51.40
2022-12-01T08:05:14.168Z,52.53
2022-12-01T08:08:16.353Z,51.75
2022-12-01T08:11:21.743Z,51.38
2022-12-01T08:14:23.850Z,48.35
2022-12-01T08:17:26.001Z,52.40
2022-12-01T08:20:28.204Z,45.17
2022-12-01T08:23:30.403Z,44.17
2022-12-01T08:26:32.595Z,46.22
2022-12-01T08:29:35.576Z,45.85
2022-12-01T08:32:37.708Z,42.20
2022-12-01T08:35:40.086Z,46.58
2022-12-01T08:38:45.788Z,49.90
2022-12-01T08:41:47.963Z,45.90
2022-12-01T08:44:50.217Z,52.05
2022-12-01T08:47:53.698Z,49.40
2022-12-01T08:51:09.731Z,45.38
2022-12-01T08:54:12.619Z,47.55
2022-12-01T08:57:14.768Z,50.05
2022-12-01T09:00:17.110Z,48.92
2022-12-01T09:03:19.381Z,50.60
2022-12-01T09:06:21.927Z,51.00
2022-12-01T09:09:26.931Z,45.80
2022-12-01T09:12:29.807Z,45.83
2022-12-01T09:15:32.016Z,49.25
2022-12-01T09:18:35.203Z,47.27
2022-12-01T09:21:37.761Z,45.58
2022-12-01T09:24:39.931Z,49.70
2022-12-01T09:27:42.095Z,41.47
2022-12-01T09:30:45.622Z,39.05
2022-12-01T09:33:47.905Z,42.37
2022-12-01T09:36:50.173Z,41.30
2022-12-01T09:39:52.405Z,39.10
2022-12-01T09:42:55.578Z,37.13
2022-12-01T09:46:07.303Z,40.65
2022-12-01T09:49:17.488Z,35.50
2022-12-01T09:52:21.229Z,37.45
2022-12-01T09:55:25.137Z,39.00
2022-12-01T09:58:31.095Z,41.58
2022-12-01T10:01:37.741Z,40.67
2022-12-01T10:04:44.594Z,38.80
2022-12-01T10:07:57.392Z,41.03
2022-12-01T10:11:12.235Z,39.90
2022-12-01T10:14:22.608Z,36.40
2022-12-01T10:17:49.375Z,35.88
2022-12-01T10:21:16.823Z,33.83
2022-12-01T10:24:27.891Z,30.95
2022-12-01T10:27:54.116Z,32.50
2022-12-01T10:31:07.004Z,32.38
2022-12-01T10:34:18.067Z,30.83
2022-12-01T10:37:26.195Z,26.77
2022-12-01T10:40:28.895Z,28.45
2022-12-01T10:43:38.299Z,28.58
2022-12-01T10:46:52.838Z,28.13
2022-12-01T10:49:55.277Z,27.80
2022-12-01T10:52:57.434Z,27.93
2022-12-01T10:56:09.788Z,30.73
2022-12-01T10:59:31.578Z,32.42
2022-12-01T11:02:34.995Z,30.92
2022-12-01T11:05:41.094Z,25.40
2022-12-01T11:08:52.479Z,30.17
2022-12-01T11:12:02.567Z,30.45
2022-12-01T11:15:05.741Z,25.70
2022-12-01T11:18:40.766Z,24.73
2022-12-01T11:21:53.115Z,23.50
2022-12-01T11:24:55.559Z,23.83
2022-12-01T11:28:01.881Z,20.48
2022-12-01T11:31:06.867Z,13.98
2022-12-01T11:34:18.153Z,16.30
2022-12-01T11:37:22.475Z,12.43
2022-12-01T11:40:27.404Z,12.40
2022-12-01T11:43:37.340Z,13.07
2022-12-01T11:46:50.075Z,12.80
2022-12-01T11:49:59.305Z,12.82
2022-12-01T11:53:02.201Z,12.80
2022-12-01T11:56:22.605Z,12.60
2022-12-01T11:59:27.571Z,15.52
2022-12-01T12:02:49.247Z,14.32
2022-12-01T12:06:39.633Z,14.32
2022-12-01T12:10:18.064Z,15.40
2022-12-01T12:13:53.915Z,14.50
2022-12-01T12:17:34.182Z,12.82
2022-12-01T12:21:14.385Z,15.18
2022-12-01T12:24:41.212Z,12.85
2022-12-01T12:28:18.795Z,13.82
2022-12-01T12:31:42.606Z,13.90
2022-12-01T12:34:50.827Z,14.52
2022-12-01T12:38:13.705Z,12.80
2022-12-01T12:41:22.104Z,12.82
2022-12-01T12:44:44.199Z,12.82
2022-12-01T12:48:09.008Z,12.70
2022-12-01T12:51:37.257Z,11.48
2022-12-01T12:54:50.593Z,12.93
2022-12-01T12:58:00.957Z,13.75
2022-12-01T13:01:11.234Z,11.50
2022-12-01T13:04:21.005Z,13.27
2022-12-01T13:07:50.864Z,12.90
2022-12-01T13:11:18.577Z,16.45
2022-12-01T13:14:28.543Z,14.85
2022-12-01T13:17:35.807Z,12.82
2022-12-01T13:20:38.576Z,12.80
2022-12-01T13:23:41.470Z,12.77
2022-12-01T13:26:46.747Z,10.95
2022-12-01T13:29:51.155Z,11.05
2022-12-01T13:32:59.976Z,11.77
2022-12-01T13:36:38.000Z,11.43
2022-12-01T13:39:38.479Z,14.38
2022-12-01T13:42:40.775Z,15.02
2022-12-01T13:45:43.018Z,15.18
2022-12-01T13:48:45.147Z,14.43
2022-12-01T13:52:21.797Z,12.17
2022-12-01T13:55:29.513Z,13.95
2022-12-01T13:58:32.619Z,15.30
2022-12-01T14:01:46.622Z,14.82
2022-12-01T14:04:49.429Z,12.88
2022-12-01T14:07:53.969Z,16.53
2022-12-01T14:11:18.159Z,19.60
2022-12-01T14:14:26.047Z,14.43
2022-12-01T14:17:34.379Z,63.97
2022-12-01T14:20:44.929Z,23.77
2022-12-01T14:24:04.383Z,20.60
2022-12-01T14:27:07.356Z,15.30
2022-12-01T14:30:42.117Z,14.60
2022-12-01T14:33:54.358Z,11.88
2022-12-01T14:37:14.188Z,39.38
2022-12-01T14:40:19.160Z,15.77
2022-12-01T14:43:40.722Z,15.77
2022-12-01T14:47:12.911Z,16.13
2022-12-01T14:50:19.472Z,18.60
2022-12-01T14:53:28.032Z,14.68
2022-12-01T14:56:32.622Z,15.73
2022-12-01T14:59:34.960Z,22.35
2022-12-01T15:02:58.392Z,26.58
2022-12-01T15:06:00.599Z,19.20
2022-12-01T15:12:31.396Z,16.67
2022-12-01T15:15:33.539Z,17.80
2022-12-01T15:18:37.053Z,17.67
2022-12-01T15:21:39.471Z,18.50
2022-12-01T15:24:42.361Z,34.25
2022-12-01T15:27:44.545Z,66.57
2022-12-01T15:30:48.643Z,28.85
2022-12-01T15:33:52.163Z,24.63
2022-12-01T15:36:54.662Z,21.15
2022-12-01T15:43:27.077Z,19.10
2022-12-01T15:46:34.385Z,20.48
2022-12-01T15:49:48.589Z,22.40
2022-12-01T15:52:50.839Z,26.27
2022-12-01T15:55:58.738Z,25.92
2022-12-01T15:59:33.415Z,24.27
2022-12-01T16:02:35.969Z,25.90
2022-12-01T16:05:38.547Z,23.23
2022-12-01T16:08:40.849Z,24.55
2022-12-01T16:12:23.261Z,35.10
2022-12-01T16:15:25.593Z,34.77
2022-12-01T16:18:34.115Z,28.75
2022-12-01T16:21:48.832Z,32.75
2022-12-01T16:24:55.091Z,34.65
2022-12-01T16:27:57.743Z,45.22
2022-12-01T16:31:00.663Z,43.90
2022-12-01T16:34:13.974Z,29.75
2022-12-01T16:37:22.208Z,41.72
2022-12-01T16:40:24.772Z,35.28
2022-12-01T16:43:28.619Z,30.90
2022-12-01T16:46:30.925Z,37.07
2022-12-01T16:49:33.238Z,34.97
2022-12-01T16:52:44.210Z,42.92
2022-12-01T16:55:55.963Z,35.25
2022-12-01T16:58:58.348Z,42.67
2022-12-01T17:02:02.661Z,39.97
2022-12-01T17:05:05.485Z,39.90
2022-12-01T17:08:08.063Z,30.80
2022-12-01T17:11:10.640Z,26.00
2022-12-01T17:14:13.551Z,30.55
2022-12-01T17:17:21.028Z,33.20
2022-12-01T17:20:23.649Z,32.33
2022-12-01T17:23:27.258Z,27.92
2022-12-01T17:26:29.597Z,28.05
2022-12-01T17:29:32.029Z,38.47
2022-12-01T17:32:34.283Z,32.33
2022-12-01T17:35:39.714Z,30.50
2022-12-01T17:38:45.466Z,37.08
2022-12-01T17:41:47.621Z,33.92
2022-12-01T17:44:50.892Z,35.40
2022-12-01T17:47:54.910Z,39.57
2022-12-01T17:50:58.786Z,41.75
2022-12-01T17:54:00.901Z,42.70
2022-12-01T17:57:03.464Z,52.97
2022-12-01T18:00:07.261Z,43.30
2022-12-01T18:03:12.245Z,43.90
2022-12-01T18:06:15.364Z,51.83
2022-12-01T18:09:17.794Z,56.35
2022-12-01T18:12:20.342Z,37.75
2022-12-01T18:15:28.194Z,56.90
2022-12-01T18:18:33.007Z,34.97
2022-12-01T18:21:36.388Z,73.25
2022-12-01T18:24:44.320Z,75.82
2022-12-01T18:27:49.462Z,67.65
2022-12-01T18:30:53.074Z,57.28
2022-12-01T18:33:59.021Z,54.37
2022-12-01T18:37:02.901Z,67.55
2022-12-01T18:40:05.917Z,68.63
2022-12-01T18:43:08.553Z,78.28
2022-12-01T18:46:12.703Z,103.30
2022-12-01T18:49:15.352Z,124.20
2022-12-01T18:52:18.090Z,118.13
2022-12-01T18:55:20.515Z,104.78
2022-12-01T18:58:41.918Z,89.40
2022-12-01T19:01:46.163Z,93.47
2022-12-01T19:04:50.248Z,100.67
2022-12-01T19:07:56.752Z,101.93
2022-12-01T19:11:05.757Z,103.20
2022-12-01T19:14:16.289Z,108.45
2022-12-01T19:17:19.182Z,110.75
2022-12-01T19:20:22.018Z,109.87
2022-12-01T19:23:24.269Z,112.50
2022-12-01T19:26:27.199Z,113.93
2022-12-01T19:29:30.148Z,113.65
2022-12-01T19:32:43.965Z,165.90
2022-12-01T19:35:46.770Z,239.80
2022-12-01T19:38:50.831Z,211.48
2022-12-01T19:41:53.735Z,125.32
2022-12-01T19:44:56.609Z,368.30
2022-12-01T19:47:59.243Z,311.40
2022-12-01T19:51:02.558Z,501.43
2022-12-01T19:54:07.313Z,230.98
2022-12-01T19:57:10.219Z,104.30
2022-12-01T20:00:13.482Z,122.40
2022-12-01T20:03:16.680Z,107.95
2022-12-01T20:06:24.223Z,101.70
2022-12-01T20:09:28.112Z,106.00
2022-12-01T20:12:31.029Z,100.78
2022-12-01T20:15:33.691Z,102.75
2022-12-01T20:18:37.972Z,92.55
2022-12-01T20:21:47.609Z,93.87
2022-12-01T20:24:50.769Z,95.85
2022-12-01T20:27:53.194Z,94.63
2022-12-01T20:30:55.839Z,91.25
2022-12-01T20:34:00.300Z,91.78
2022-12-01T20:37:03.154Z,92.23
2022-12-01T20:40:06.660Z,96.63
2022-12-01T20:43:09.419Z,96.03
2022-12-01T20:46:13.514Z,100.07
2022-12-01T20:49:17.353Z,116.43
2022-12-01T20:52:20.413Z,100.87
2022-12-01T20:55:27.706Z,103.90
2022-12-01T20:58:33.290Z,94.68
2022-12-01T21:01:39.515Z,95.00
2022-12-01T21:04:41.684Z,101.22
2022-12-01T21:07:44.087Z,99.20
2022-12-01T21:10:46.611Z,101.85
2022-12-01T21:13:49.549Z,105.25
2022-12-01T21:16:55.044Z,100.82
2022-12-01T21:20:11.643Z,112.30
2022-12-01T21:23:15.839Z,96.57
2022-12-01T21:26:19.098Z,97.80
2022-12-01T21:29:24.784Z,99.93
2022-12-01T21:32:31.635Z,105.22
2022-12-01T21:35:33.843Z,108.45
2022-12-01T21:38:36.003Z,89.97
2022-12-01T21:41:38.296Z,88.22
2022-12-01T21:44:40.462Z,90.40
2022-12-01T21:47:42.615Z,90.93
2022-12-01T21:50:49.399Z,96.63
2022-12-01T21:53:56.390Z,95.57
2022-12-01T21:56:58.735Z,96.70
2022-12-01T22:00:25.227Z,113.20
2022-12-01T22:03:38.276Z,147.65
2022-12-01T22:06:43.637Z,115.15
2022-12-01T22:09:45.860Z,105.23
2022-12-01T22:12:48.590Z,110.05
2022-12-01T22:15:53.521Z,118.60
2022-12-01T22:18:57.564Z,163.90
2022-12-01T22:22:10.354Z,182.55
2022-12-01T22:25:18.888Z,121.80
2022-12-01T22:28:24.169Z,132.85
2022-12-01T22:31:28.227Z,109.03
2022-12-01T22:34:30.470Z,110.03
2022-12-01T22:37:36.922Z,96.60
2022-12-01T22:40:48.170Z,91.33
2022-12-01T22:43:52.845Z,124.03
2022-12-01T22:47:00.730Z,122.13
2022-12-01T22:50:23.239Z,111.95
2022-12-01T22:53:30.568Z,150.40
2022-12-01T22:56:59.151Z,151.13
2022-12-01T23:00:14.991Z,157.63
2022-12-01T23:03:17.409Z,172.65
2022-12-01T23:06:48.185Z,127.68
2022-12-01T23:09:50.428Z,127.10
2022-12-01T23:12:54.881Z,118.47
2022-12-01T23:15:57.148Z,127.47
2022-12-01T23:18:59.356Z,122.18
2022-12-01T23:22:01.788Z,121.55
2022-12-01T23:25:16.062Z,112.45
2022-12-01T23:28:18.792Z,102.23
2022-12-01T23:31:21.177Z,116.85
2022-12-01T23:34:23.546Z,108.72
2022-12-01T23:37:37.860Z,102.00
2022-12-01T23:40:39.981Z,103.43
2022-12-01T23:43:44.480Z,129.10
2022-12-01T23:46:48.966Z,138.50
2022-12-01T23:49:59.078Z,124.78
2022-12-01T23:53:01.660Z,126.93
2022-12-01T23:56:09.369Z,139.65
2022-12-01T23:59:13.340Z,136.67
